createdAt,value
2022-11-24T00:00:37.011Z,7.54
2022-11-24T00:03:07.087Z,7.56
2022-11-24T00:05:38.203Z,7.52
2022-11-24T00:08:06.904Z,7.54
2022-11-24T00:10:36.900Z,7.51
2022-11-24T00:13:06.992Z,7.52
2022-11-24T00:18:06.944Z,7.40
2022-11-24T00:53:07.462Z,7.44
2022-11-24T00:55:36.874Z,7.43
2022-11-24T00:58:06.877Z,7.52
2022-11-24T01:00:37.138Z,7.55
2022-11-24T01:03:06.856Z,7.65
2022-11-24T01:05:37.346Z,7.70
2022-11-24T01:08:07.296Z,7.69
2022-11-24T01:10:37.322Z,7.73
2022-11-24T01:13:07.003Z,7.81
2022-11-24T01:15:37.077Z,7.89
2022-11-24T01:18:07.355Z,7.90
2022-11-24T01:20:37.009Z,7.96
2022-11-24T01:23:06.878Z,8.00
2022-11-24T01:25:38.729Z,8.01
2022-11-24T01:28:06.990Z,8.02
2022-11-24T01:30:37.181Z,8.09
2022-11-24T01:33:07.207Z,8.07
2022-11-24T01:35:36.889Z,8.09
2022-11-24T01:38:06.885Z,8.13
2022-11-24T01:40:36.961Z,8.09
2022-11-24T01:43:14.952Z,8.05
2022-11-24T01:45:39.930Z,8.11
2022-11-24T01:48:13.486Z,8.12
2022-11-24T01:50:36.963Z,8.11
2022-11-24T01:53:07.505Z,8.15
2022-11-24T01:58:11.145Z,8.11
2022-11-24T02:00:39.321Z,8.09
2022-11-24T02:03:08.209Z,8.13
2022-11-24T02:05:42.906Z,8.03
2022-11-24T02:08:16.494Z,8.04
2022-11-24T02:13:07.140Z,8.06
2022-11-24T02:15:37.149Z,8.08
2022-11-24T02:18:07.129Z,8.09
2022-11-24T02:20:37.257Z,8.08
2022-11-24T02:23:16.098Z,8.09
2022-11-24T02:25:46.152Z,8.06
2022-11-24T02:28:11.736Z,8.03
2022-11-24T02:30:37.218Z,8.02
2022-11-24T02:33:07.111Z,7.90
2022-11-24T02:35:37.419Z,7.88
2022-11-24T02:38:09.630Z,7.95
2022-11-24T02:40:37.543Z,7.91
2022-11-24T02:43:11.900Z,7.85
2022-11-24T02:45:36.934Z,7.79
2022-11-24T02:48:07.780Z,7.87
2022-11-24T02:50:37.140Z,7.82
2022-11-24T02:53:06.964Z,7.83
2022-11-24T02:55:37.102Z,7.79
2022-11-24T02:58:07.072Z,7.78
2022-11-24T03:00:37.184Z,7.81
2022-11-24T03:03:07.000Z,7.79
2022-11-24T03:05:37.247Z,7.77
2022-11-24T03:08:06.964Z,7.80
2022-11-24T03:10:36.941Z,7.83
2022-11-24T03:13:07.461Z,7.81
2022-11-24T03:15:37.291Z,7.79
2022-11-24T03:18:06.980Z,7.81
2022-11-24T03:20:36.959Z,7.77
2022-11-24T03:23:06.984Z,7.76
2022-11-24T03:25:37.293Z,7.74
2022-11-24T03:28:06.943Z,7.75
2022-11-24T03:30:36.944Z,7.78
2022-11-24T03:33:07.483Z,7.79
2022-11-24T03:35:36.910Z,7.77
2022-11-24T03:38:07.175Z,7.78
2022-11-24T03:40:37.084Z,7.80
2022-11-24T03:43:07.111Z,7.88
2022-11-24T03:45:46.019Z,7.87
2022-11-24T03:48:07.113Z,7.88
2022-11-24T03:50:36.988Z,7.90
2022-11-24T03:53:06.982Z,7.89
2022-11-24T03:55:37.103Z,7.93
2022-11-24T03:58:07.038Z,7.90
2022-11-24T04:00:36.947Z,7.88
2022-11-24T04:03:08.037Z,7.84
2022-11-24T04:05:37.025Z,7.85
2022-11-24T04:08:07.034Z,7.89
2022-11-24T04:10:38.911Z,7.90
2022-11-24T04:15:39.323Z,7.86
2022-11-24T04:18:07.859Z,7.83
2022-11-24T04:20:37.941Z,7.81
2022-11-24T04:23:07.457Z,7.78
2022-11-24T04:25:37.807Z,7.80
2022-11-24T04:28:07.337Z,7.81
2022-11-24T04:30:37.650Z,7.78
2022-11-24T04:33:06.954Z,7.76
2022-11-24T04:35:36.972Z,7.75
2022-11-24T04:38:07.183Z,7.79
2022-11-24T04:40:37.467Z,7.82
2022-11-24T04:48:06.944Z,7.79
2022-11-24T04:50:38.910Z,7.75
2022-11-24T04:53:08.798Z,7.74
2022-11-24T04:55:37.476Z,7.71
2022-11-24T04:58:08.885Z,7.70
2022-11-24T05:00:38.668Z,7.65
2022-11-24T05:03:07.065Z,7.63
2022-11-24T05:05:37.273Z,7.57
2022-11-24T05:08:08.083Z,7.60
2022-11-24T05:10:37.094Z,7.58
2022-11-24T05:13:10.351Z,7.55
2022-11-24T05:15:38.585Z,7.53
2022-11-24T05:18:11.393Z,7.50
2022-11-24T05:20:37.672Z,7.54
2022-11-24T05:23:07.434Z,7.52
2022-11-24T05:37:31.014Z,7.46
2022-11-24T05:40:00.820Z,7.45
2022-11-24T05:42:46.166Z,7.43
2022-11-24T05:45:00.844Z,7.46
2022-11-24T05:47:33.102Z,7.49
2022-11-24T05:52:30.910Z,7.51
2022-11-24T05:55:01.060Z,7.49
2022-11-24T05:57:30.967Z,7.52
2022-11-24T06:00:03.053Z,7.49
2022-11-24T06:02:30.938Z,7.53
2022-11-24T06:05:00.840Z,7.57
2022-11-24T06:07:31.066Z,7.62
2022-11-24T06:10:01.005Z,7.69
2022-11-24T06:12:31.043Z,7.73
2022-11-24T06:15:01.041Z,7.74
2022-11-24T06:22:31.464Z,7.75
2022-11-24T06:25:00.818Z,7.77
2022-11-24T06:27:31.513Z,7.72
2022-11-24T06:30:00.899Z,7.76
2022-11-24T06:32:30.820Z,7.73
2022-11-24T06:35:01.593Z,7.72
2022-11-24T06:37:30.915Z,7.75
2022-11-24T06:40:00.854Z,7.78
2022-11-24T06:42:30.961Z,7.76
2022-11-24T06:45:06.018Z,7.69
2022-11-24T06:47:31.161Z,7.65
2022-11-24T06:50:00.956Z,7.60
2022-11-24T06:52:30.952Z,7.57
2022-11-24T06:55:00.998Z,7.53
2022-11-24T06:57:31.631Z,7.48
2022-11-24T07:00:01.396Z,7.46
2022-11-24T07:02:30.963Z,7.42
2022-11-24T07:05:00.846Z,7.41
2022-11-24T07:07:31.170Z,7.40
2022-11-24T07:10:01.026Z,7.34
2022-11-24T07:12:34.274Z,7.29
2022-11-24T07:15:00.876Z,7.28
2022-11-24T07:20:01.018Z,7.27
2022-11-24T07:25:01.831Z,7.24
2022-11-24T07:27:30.820Z,7.23
2022-11-24T07:30:01.050Z,7.24
2022-11-24T07:32:30.872Z,7.26
2022-11-24T07:35:00.840Z,7.27
2022-11-24T07:37:32.614Z,7.24
2022-11-24T07:40:00.886Z,7.27
2022-11-24T07:42:31.936Z,7.28
2022-11-24T07:45:00.981Z,7.32
2022-11-24T07:47:30.897Z,7.33
2022-11-24T07:50:01.264Z,7.35
2022-11-24T07:52:30.844Z,7.34
2022-11-24T07:57:31.023Z,7.38
2022-11-24T08:00:01.038Z,7.43
2022-11-24T08:02:31.536Z,7.49
2022-11-24T08:05:00.998Z,7.53
2022-11-24T08:07:32.373Z,7.57
2022-11-24T08:10:00.852Z,7.59
2022-11-24T08:12:30.998Z,7.66
2022-11-24T08:15:03.295Z,7.69
2022-11-24T08:17:30.851Z,7.76
2022-11-24T08:20:01.034Z,7.83
2022-11-24T08:22:31.095Z,7.86
2022-11-24T08:25:00.993Z,7.95
2022-11-24T08:27:31.188Z,8.02
2022-11-24T08:30:00.976Z,7.98
2022-11-24T08:32:30.977Z,8.07
2022-11-24T08:35:13.520Z,8.11
2022-11-24T08:37:31.876Z,8.17
2022-11-24T08:40:01.399Z,8.22
2022-11-24T08:42:30.887Z,8.24
2022-11-24T08:45:19.542Z,8.20
2022-11-24T08:47:31.053Z,8.23
2022-11-24T08:50:01.512Z,8.27
2022-11-24T08:52:31.265Z,8.26
2022-11-24T08:55:01.040Z,8.23
2022-11-24T08:57:30.904Z,8.21
2022-11-24T09:02:31.352Z,8.20
2022-11-24T09:05:01.256Z,8.26
2022-11-24T09:07:30.974Z,8.27
2022-11-24T09:10:01.080Z,8.30
2022-11-24T09:15:01.086Z,8.28
2022-11-24T09:17:31.986Z,8.27
2022-11-24T09:20:00.888Z,8.19
2022-11-24T09:22:31.429Z,8.23
2022-11-24T09:25:01.037Z,8.24
2022-11-24T09:27:31.214Z,8.25
2022-11-24T09:30:01.487Z,8.29
2022-11-24T09:35:00.920Z,8.30
2022-11-24T09:37:32.932Z,8.33
2022-11-24T09:40:01.073Z,8.32
2022-11-24T09:42:41.634Z,8.37
2022-11-24T09:47:40.996Z,8.42
2022-11-24T09:50:04.309Z,8.46
2022-11-24T09:52:39.478Z,8.55
2022-11-24T09:55:02.373Z,8.66
2022-11-24T09:57:37.549Z,8.77
2022-11-24T10:00:07.191Z,8.82
2022-11-24T10:02:31.171Z,8.87
2022-11-24T10:05:01.025Z,8.95
2022-11-24T10:07:39.149Z,8.96
2022-11-24T10:10:10.677Z,8.95
2022-11-24T10:12:46.935Z,9.02
2022-11-24T10:15:18.290Z,9.08
2022-11-24T10:17:44.431Z,9.13
2022-11-24T10:20:05.377Z,9.15
2022-11-24T10:22:44.579Z,9.20
2022-11-24T10:25:11.612Z,9.23
2022-11-24T10:27:36.553Z,9.24
2022-11-24T10:30:01.946Z,9.23
2022-11-24T10:32:36.956Z,9.28
2022-11-24T10:35:13.866Z,9.29
2022-11-24T10:37:36.068Z,9.31
2022-11-24T10:40:17.238Z,9.27
2022-11-24T10:42:35.899Z,9.30
2022-11-24T10:45:02.629Z,9.32
2022-11-24T10:50:08.375Z,9.39
2022-11-24T10:52:37.040Z,9.43
2022-11-24T10:55:03.946Z,9.44
2022-11-24T10:57:32.905Z,9.46
2022-11-24T11:00:03.744Z,9.48
2022-11-24T11:02:35.070Z,9.53
2022-11-24T11:07:31.186Z,9.52
2022-11-24T11:10:19.653Z,9.57
2022-11-24T11:12:44.404Z,9.58
2022-11-24T11:20:05.280Z,9.64
2022-11-24T11:22:32.329Z,9.67
2022-11-24T11:27:31.585Z,9.74
2022-11-24T11:35:01.089Z,9.83
2022-11-24T11:37:32.618Z,9.85
2022-11-24T11:40:01.461Z,10.05
2022-11-24T11:43:02.554Z,10.25
2022-11-24T11:45:05.501Z,10.66
2022-11-24T11:47:37.504Z,11.04
2022-11-24T11:50:01.445Z,11.19
2022-11-24T11:52:46.905Z,11.17
2022-11-24T11:55:16.699Z,11.07
2022-11-24T11:57:41.284Z,11.03
2022-11-24T12:00:10.140Z,10.94
2022-11-24T12:02:53.584Z,10.86
2022-11-24T12:05:09.950Z,10.84
2022-11-24T12:07:46.437Z,10.80
2022-11-24T12:10:13.094Z,10.76
2022-11-24T12:12:50.917Z,10.73
2022-11-24T12:15:11.353Z,10.63
2022-11-24T12:17:39.400Z,10.64
2022-11-24T12:22:39.790Z,10.68
2022-11-24T12:25:18.124Z,10.73
2022-11-24T12:27:40.533Z,10.81
2022-11-24T12:30:09.312Z,11.03
2022-11-24T12:32:50.826Z,11.28
2022-11-24T12:35:15.155Z,11.55
2022-11-24T12:37:44.427Z,11.88
2022-11-24T12:40:08.562Z,12.13
2022-11-24T12:42:40.988Z,12.35
2022-11-24T12:45:12.301Z,12.52
2022-11-24T12:47:48.704Z,12.57
2022-11-24T12:50:08.120Z,12.59
2022-11-24T12:52:36.639Z,12.78
2022-11-24T12:55:02.506Z,12.90
2022-11-24T12:57:41.020Z,13.10
2022-11-24T13:00:05.845Z,13.20
2022-11-24T13:02:46.575Z,13.34
2022-11-24T13:05:17.996Z,13.50
2022-11-24T13:10:30.157Z,13.53
2022-11-24T13:12:31.009Z,13.62
2022-11-24T13:15:36.205Z,13.79
2022-11-24T13:17:47.627Z,13.87
2022-11-24T13:20:13.662Z,13.80
2022-11-24T13:22:31.602Z,13.91
2022-11-24T13:25:13.716Z,13.94
2022-11-24T13:27:41.236Z,14.01
2022-11-24T13:30:01.160Z,13.98
2022-11-24T13:32:45.747Z,13.84
2022-11-24T13:35:02.960Z,14.01
2022-11-24T13:37:45.032Z,13.92
2022-11-24T13:40:12.449Z,13.81
2022-11-24T13:42:44.418Z,13.87
2022-11-24T13:45:02.912Z,13.78
2022-11-24T13:47:34.321Z,13.63
2022-11-24T13:50:03.226Z,13.43
2022-11-24T13:52:42.839Z,13.46
2022-11-24T13:55:02.662Z,13.40
2022-11-24T13:57:33.343Z,13.36
2022-11-24T14:00:02.591Z,13.33
2022-11-24T14:02:33.598Z,13.30
2022-11-24T14:07:31.134Z,13.23
2022-11-24T14:10:01.461Z,13.22
2022-11-24T14:12:32.829Z,13.20
2022-11-24T14:15:19.960Z,13.07
2022-11-24T14:17:31.011Z,12.92
2022-11-24T14:20:15.953Z,12.77
2022-11-24T14:22:36.040Z,12.49
2022-11-24T14:25:02.529Z,12.23
2022-11-24T14:27:33.644Z,12.16
2022-11-24T14:30:04.119Z,12.03
2022-11-24T14:32:31.287Z,11.94
2022-11-24T14:35:01.300Z,11.80
2022-11-24T14:37:31.842Z,11.49
2022-11-24T14:40:00.990Z,11.47
2022-11-24T14:42:32.406Z,11.35
2022-11-24T14:45:03.384Z,11.19
2022-11-24T14:47:35.249Z,11.08
2022-11-24T14:50:12.862Z,11.06
2022-11-24T14:52:31.266Z,10.96
2022-11-24T14:55:17.623Z,10.90
2022-11-24T14:57:32.856Z,10.87
2022-11-24T15:00:06.660Z,10.76
2022-11-24T15:02:41.046Z,10.70
2022-11-24T15:05:03.383Z,10.61
2022-11-24T15:07:31.428Z,10.47
2022-11-24T15:10:03.796Z,10.42
2022-11-24T15:12:35.726Z,10.27
2022-11-24T15:15:03.908Z,10.13
2022-11-24T15:17:32.246Z,10.11
2022-11-24T15:20:06.851Z,10.09
2022-11-24T15:22:34.997Z,10.00
2022-11-24T15:25:02.265Z,9.90
2022-11-24T15:27:31.127Z,9.79
2022-11-24T15:32:31.071Z,9.76
2022-11-24T15:35:01.319Z,9.71
2022-11-24T15:37:34.130Z,9.64
2022-11-24T15:40:01.104Z,9.57
2022-11-24T15:42:31.094Z,9.50
2022-11-24T15:45:01.098Z,9.45
2022-11-24T15:47:31.072Z,9.38
2022-11-24T15:50:01.243Z,9.30
2022-11-24T15:52:31.104Z,9.21
2022-11-24T15:55:01.425Z,9.15
2022-11-24T15:57:33.280Z,9.08
2022-11-24T16:00:01.317Z,9.03
2022-11-24T16:02:31.519Z,9.04
2022-11-24T16:05:01.044Z,8.99
2022-11-24T16:07:31.374Z,8.94
2022-11-24T16:12:31.515Z,8.93
2022-11-24T16:15:01.192Z,8.90
2022-11-24T16:17:31.212Z,8.83
2022-11-24T16:20:01.601Z,8.79
2022-11-24T16:22:31.009Z,8.77
2022-11-24T16:25:03.199Z,8.72
2022-11-24T16:27:31.368Z,8.67
2022-11-24T16:30:01.146Z,8.65
2022-11-24T16:32:31.240Z,8.64
2022-11-24T16:35:01.178Z,8.53
2022-11-24T16:37:31.419Z,8.44
2022-11-24T16:40:01.623Z,8.48
2022-11-24T16:42:31.451Z,8.47
2022-11-24T16:45:01.178Z,8.42
2022-11-24T16:50:01.347Z,8.36
2022-11-24T16:52:31.201Z,8.45
2022-11-24T16:55:01.177Z,8.49
2022-11-24T16:57:31.379Z,8.50
2022-11-24T17:00:01.257Z,8.41
2022-11-24T17:02:32.761Z,8.36
2022-11-24T17:05:01.388Z,8.31
2022-11-24T17:07:32.652Z,8.25
2022-11-24T17:10:01.223Z,8.27
2022-11-24T17:12:31.069Z,8.19
2022-11-24T17:15:31.080Z,8.15
2022-11-24T17:17:31.265Z,8.14
2022-11-24T17:20:01.059Z,8.07
2022-11-24T17:22:31.082Z,8.05
2022-11-24T17:25:01.034Z,8.07
2022-11-24T17:27:31.168Z,7.99
2022-11-24T17:30:01.256Z,8.04
2022-11-24T17:32:31.339Z,7.96
2022-11-24T17:37:31.192Z,7.94
2022-11-24T17:40:26.810Z,7.86
2022-11-24T17:42:31.905Z,7.89
2022-11-24T17:45:01.062Z,7.84
2022-11-24T17:50:01.227Z,7.80
2022-11-24T17:52:31.248Z,7.86
2022-11-24T17:55:01.517Z,7.83
2022-11-24T17:57:31.072Z,7.85
2022-11-24T18:00:01.633Z,7.93
2022-11-24T18:02:31.184Z,7.87
2022-11-24T18:05:01.427Z,7.85
2022-11-24T18:07:31.245Z,7.78
2022-11-24T18:10:01.243Z,7.80
2022-11-24T18:15:01.825Z,7.79
2022-11-24T18:17:31.150Z,7.77
2022-11-24T18:20:01.308Z,7.74
2022-11-24T18:22:57.881Z,7.61
2022-11-24T18:25:01.139Z,7.65
2022-11-24T18:27:31.332Z,7.73
2022-11-24T18:30:01.470Z,7.63
2022-11-24T18:32:31.253Z,7.62
2022-11-24T18:35:01.274Z,7.63
2022-11-24T18:37:32.534Z,7.58
2022-11-24T18:40:01.583Z,7.55
2022-11-24T18:42:31.126Z,7.61
2022-11-24T18:45:01.259Z,7.62
2022-11-24T18:47:31.114Z,7.63
2022-11-24T18:50:01.184Z,7.55
2022-11-24T18:52:31.095Z,7.57
2022-11-24T18:55:03.130Z,7.52
2022-11-24T18:57:31.323Z,7.53
2022-11-24T19:02:31.315Z,7.50
2022-11-24T19:05:02.045Z,7.46
2022-11-24T19:07:31.996Z,7.51
2022-11-24T19:10:01.388Z,7.57
2022-11-24T19:12:31.108Z,7.52
2022-11-24T19:15:01.223Z,7.45
2022-11-24T19:17:31.143Z,7.49
2022-11-24T19:20:01.285Z,7.46
2022-11-24T19:22:31.157Z,7.48
2022-11-24T19:25:01.131Z,7.47
2022-11-24T19:27:33.276Z,7.45
2022-11-24T19:30:01.296Z,7.42
2022-11-24T19:32:31.429Z,7.41
2022-11-24T19:35:01.448Z,7.47
2022-11-24T19:37:31.119Z,7.45
2022-11-24T19:40:01.188Z,7.46
2022-11-24T19:42:31.260Z,7.45
2022-11-24T19:45:01.153Z,7.46
2022-11-24T19:47:31.399Z,7.40
2022-11-24T19:52:31.304Z,7.41
2022-11-24T19:55:01.205Z,7.37
2022-11-24T19:57:31.271Z,7.28
2022-11-24T20:00:01.172Z,7.37
2022-11-24T20:02:31.420Z,7.32
2022-11-24T20:05:01.152Z,7.34
2022-11-24T20:07:31.133Z,7.36
2022-11-24T20:15:01.535Z,7.34
2022-11-24T20:17:31.762Z,7.27
2022-11-24T20:20:01.153Z,7.24
2022-11-24T20:22:31.292Z,7.21
2022-11-24T20:27:31.443Z,7.24
2022-11-24T20:30:01.178Z,7.22
2022-11-24T20:32:31.162Z,7.18
2022-11-24T20:35:01.148Z,7.13
2022-11-24T20:37:32.396Z,7.16
2022-11-24T20:40:03.043Z,7.17
2022-11-24T20:42:31.267Z,7.13
2022-11-24T20:45:01.229Z,7.18
2022-11-24T20:47:31.529Z,7.22
2022-11-24T20:50:01.383Z,7.17
2022-11-24T20:55:02.977Z,7.18
2022-11-24T20:57:31.162Z,7.17
2022-11-24T21:00:01.326Z,7.12
2022-11-24T21:02:31.287Z,7.13
2022-11-24T21:05:01.148Z,7.17
2022-11-24T21:07:31.397Z,7.18
2022-11-24T21:10:01.285Z,7.08
2022-11-24T21:12:31.242Z,7.14
2022-11-24T21:15:01.271Z,7.17
2022-11-24T21:17:31.756Z,7.16
2022-11-24T21:20:01.507Z,7.14
2022-11-24T21:22:31.158Z,7.20
2022-11-24T21:25:01.300Z,7.16
2022-11-24T21:27:31.385Z,7.22
2022-11-24T21:30:01.274Z,7.25
2022-11-24T21:32:33.137Z,7.19
2022-11-24T21:35:01.191Z,7.18
2022-11-24T21:37:31.168Z,7.24
2022-11-24T21:40:01.285Z,7.12
2022-11-24T21:42:31.150Z,7.15
2022-11-24T21:45:01.532Z,7.17
2022-11-24T21:47:31.164Z,7.19
2022-11-24T21:50:01.217Z,7.21
2022-11-24T21:52:31.432Z,7.25
2022-11-24T21:55:01.126Z,7.35
2022-11-24T21:57:31.212Z,7.38
2022-11-24T22:00:01.175Z,7.41
2022-11-24T22:02:31.343Z,7.44
2022-11-24T22:07:32.165Z,7.51
2022-11-24T22:10:01.176Z,7.53
2022-11-24T22:12:31.154Z,7.57
2022-11-24T22:15:01.312Z,7.44
2022-11-24T22:17:31.136Z,7.53
2022-11-24T22:20:01.253Z,7.57
2022-11-24T22:22:31.197Z,7.56
2022-11-24T22:25:01.190Z,7.54
2022-11-24T22:27:31.350Z,7.48
2022-11-24T22:30:03.904Z,7.46
2022-11-24T22:32:31.160Z,7.53
2022-11-24T22:35:01.313Z,7.52
2022-11-24T22:37:31.389Z,7.50
2022-11-24T22:40:01.257Z,7.55
2022-11-24T22:42:31.307Z,7.54
2022-11-24T22:45:01.170Z,7.49
2022-11-24T22:50:01.377Z,7.56
2022-11-24T22:52:32.792Z,7.64
2022-11-24T22:55:01.227Z,7.68
2022-11-24T22:57:31.320Z,7.67
2022-11-24T23:00:01.485Z,7.64
2022-11-24T23:02:31.218Z,7.70
2022-11-24T23:05:01.338Z,7.71
2022-11-24T23:07:31.549Z,7.69
2022-11-24T23:10:01.478Z,7.59
2022-11-24T23:12:31.295Z,7.61
2022-11-24T23:15:01.163Z,7.62
2022-11-24T23:17:31.204Z,7.70
2022-11-24T23:20:01.344Z,7.69
2022-11-24T23:22:31.479Z,7.74
2022-11-24T23:25:01.209Z,7.67
2022-11-24T23:27:31.217Z,7.69
2022-11-24T23:30:01.368Z,7.67
2022-11-24T23:35:01.278Z,7.70
2022-11-24T23:37:52.124Z,7.64
2022-11-24T23:40:01.166Z,7.76
2022-11-24T23:45:01.218Z,7.67
2022-11-24T23:47:31.352Z,7.74
2022-11-24T23:50:01.328Z,7.82
2022-11-24T23:52:31.190Z,7.75
2022-11-24T23:55:01.438Z,7.83
2022-11-24T23:57:31.193Z,7.85
